Syosyun — JD2406 — position and weather

sailwx.info

Track history (hours):
 
Tides and Currents Weather Stations Pressure Air Temp Water Temp Dewpoint Dewpoint Depression Visibility Wind Speed Wind Dir Waves Ship Positions

Syosyun

Last reported at 2016-Sep-21 23:26 UTC. Time now 2016-Sep-29 06:47 UTC.
Position N 35°03' E 139°30'.

Length 74 m; draft 3.7 m.

Type: Cargo ship. MMSI: 431000201.

Date/timePositionNaut miles runAvg speedWind from/ knotsBaromVisibWave heightAir tempDewpointWater temp
2016-Sep-21 23:26N 35°03' E 139°30'1111.3
2016-Sep-21 22:29N 35°08' E 139°42'3010.2
2016-Sep-21 19:33N 35°36' E 139°57'5 1.7
2016-Sep-21 16:29N 35°41' E 139°59'0 0.0
2016-Sep-21 09:29N 35°41' E 139°59'0 0.0
2016-Sep-21 08:23N 35°41' E 139°59'0 0.0
2016-Sep-21 03:29N 35°41' E 139°59'0 0.0
2016-Sep-21 02:29N 35°41' E 139°59'0 0.0
2016-Sep-20 17:29N 35°41' E 139°59'0 0.0
2016-Sep-20 14:29N 35°41' E 139°59'0 0.0
2016-Sep-20 13:05N 35°41' E 139°59'0 0.0
2016-Sep-20 10:29N 35°41' E 139°59'0 0.0
2016-Sep-20 08:29N 35°41' E 139°59'0 0.0
2016-Sep-20 07:29N 35°41' E 139°59'0 0.0
2016-Sep-20 06:29N 35°41' E 139°59'0 0.0
2016-Sep-20 02:29N 35°41' E 139°59'1 0.4
2016-Sep-19 23:14N 35°41' E 139°58'0 0.0
2016-Sep-19 19:26N 35°41' E 139°58'0 0.0
2016-Sep-19 18:20N 35°41' E 139°58'0 0.0
2016-Sep-19 16:26N 35°41' E 139°58'0 0.0
2016-Sep-19 14:32N 35°41' E 139°58'0 0.0
2016-Sep-19 12:26N 35°41' E 139°58'0 0.0
2016-Sep-19 11:32N 35°41' E 139°58'0 0.0
2016-Sep-19 09:14N 35°41' E 139°58'0 0.0
2016-Sep-19 07:29N 35°41' E 139°58'0 0.0
2016-Sep-19 06:32N 35°41' E 139°58'0 0.0
2016-Sep-19 03:14N 35°41' E 139°58'0 0.0
2016-Sep-19 02:32N 35°41' E 139°58'0 0.0
2016-Sep-19 00:32N 35°41' E 139°58'4 0.8
2016-Sep-18 19:15N 35°37' E 139°57'29 7.9
2016-Sep-18 15:33N 35°09' E 139°46'239 9.2
2016-Sep-17 13:33N 34°14' E 135°03'1111.0
2016-Sep-17 12:33N 34°25' E 135°04'14 6.4
2016-Sep-17 10:20N 34°37' E 134°54'7 0.3
2016-Sep-16 15:07N 34°41' E 134°49'26 9.2
2016-Sep-16 12:20N 34°19' E 135°04'254 8.0
2016-Sep-15 04:33N 35°40' E 139°58'0 0.0
2016-Sep-15 03:21N 35°40' E 139°58'0 0.0
2016-Sep-15 01:27N 35°40' E 139°58'1 0.3
2016-Sep-14 22:33N 35°40' E 139°59'4 3.5
2016-Sep-14 21:29N 35°36' E 139°57'0 0.0
2016-Sep-14 17:23N 35°36' E 139°57'8 9.4
2016-Sep-14 16:33N 35°30' E 139°53'  
Track history (hours):
 
Tides and Currents Weather Stations Pressure Air Temp Water Temp Dewpoint Dewpoint Depression Visibility Wind Speed Wind Dir Waves Ship Positions

Syosyun

Last reported at 2016-Sep-21 23:26 UTC. Time now 2016-Sep-29 06:47 UTC.
Position N 35°03' E 139°30'.

Length 74 m; draft 3.7 m.

Type: Cargo ship. MMSI: 431000201.

Date/timePositionNaut miles runAvg speedWind from/ knotsBaromVisibWave heightAir tempDewpointWater temp
2016-Sep-21 23:26N 35°03' E 139°30'1111.3
2016-Sep-21 22:29N 35°08' E 139°42'3010.2
2016-Sep-21 19:33N 35°36' E 139°57'5 1.7
2016-Sep-21 16:29N 35°41' E 139°59'0 0.0
2016-Sep-21 09:29N 35°41' E 139°59'0 0.0
2016-Sep-21 08:23N 35°41' E 139°59'0 0.0
2016-Sep-21 03:29N 35°41' E 139°59'0 0.0
2016-Sep-21 02:29N 35°41' E 139°59'0 0.0
2016-Sep-20 17:29N 35°41' E 139°59'0 0.0
2016-Sep-20 14:29N 35°41' E 139°59'0 0.0
2016-Sep-20 13:05N 35°41' E 139°59'0 0.0
2016-Sep-20 10:29N 35°41' E 139°59'0 0.0
2016-Sep-20 08:29N 35°41' E 139°59'0 0.0
2016-Sep-20 07:29N 35°41' E 139°59'0 0.0
2016-Sep-20 06:29N 35°41' E 139°59'0 0.0
2016-Sep-20 02:29N 35°41' E 139°59'1 0.4
2016-Sep-19 23:14N 35°41' E 139°58'0 0.0
2016-Sep-19 19:26N 35°41' E 139°58'0 0.0
2016-Sep-19 18:20N 35°41' E 139°58'0 0.0
2016-Sep-19 16:26N 35°41' E 139°58'0 0.0
2016-Sep-19 14:32N 35°41' E 139°58'0 0.0
2016-Sep-19 12:26N 35°41' E 139°58'0 0.0
2016-Sep-19 11:32N 35°41' E 139°58'0 0.0
2016-Sep-19 09:14N 35°41' E 139°58'0 0.0
2016-Sep-19 07:29N 35°41' E 139°58'0 0.0
2016-Sep-19 06:32N 35°41' E 139°58'0 0.0
2016-Sep-19 03:14N 35°41' E 139°58'0 0.0
2016-Sep-19 02:32N 35°41' E 139°58'0 0.0
2016-Sep-19 00:32N 35°41' E 139°58'4 0.8
2016-Sep-18 19:15N 35°37' E 139°57'29 7.9
2016-Sep-18 15:33N 35°09' E 139°46'239 9.2
2016-Sep-17 13:33N 34°14' E 135°03'1111.0
2016-Sep-17 12:33N 34°25' E 135°04'14 6.4
2016-Sep-17 10:20N 34°37' E 134°54'7 0.3
2016-Sep-16 15:07N 34°41' E 134°49'26 9.2
2016-Sep-16 12:20N 34°19' E 135°04'254 8.0
2016-Sep-15 04:33N 35°40' E 139°58'0 0.0
2016-Sep-15 03:21N 35°40' E 139°58'0 0.0
2016-Sep-15 01:27N 35°40' E 139°58'1 0.3
2016-Sep-14 22:33N 35°40' E 139°59'4 3.5
2016-Sep-14 21:29N 35°36' E 139°57'0 0.0
2016-Sep-14 17:23N 35°36' E 139°57'8 9.4
2016-Sep-14 16:33N 35°30' E 139°53'  

Dump ship's entire track history